Tyne Valley, Canada
Current Conditions -  °F | °C
As of 12:00 PM on Thursday 23 Oct 2014 (Local Time) from CYYG Reporting Station
Broken Clouds Broken Clouds  
Wind Chill: 57°   Ceiling: 8000
Heat Index: 57°   Visibility: 15mi
Dew Point: 45°   Wind: 15mph
Humidity: 63%   Direction: 80°E
Pressure: 30.15"   Gusts: NA
Location:  46.57°N, 63.93°W
Report Text: CYYG 231500Z 08013KT 15SM FEW020 BKN080 BKN250 14/07 A3015 RMK SC1AC5CI2 SC TR SLP210
Loading
Personal Weather Stations






























Interactive Weather Map
Tropical Storm Tracking
New forecast layout! Learn more

10-Day Weather Forecast

Advertisements
Track Severe Weather on mobile